createdAt,value
2018-11-03T00:00:34.988Z,99.99
2018-11-03T00:01:34.952Z,99.99
2018-11-03T00:02:34.943Z,99.99
2018-11-03T00:03:34.917Z,99.99
2018-11-03T00:04:34.893Z,99.99
2018-11-03T00:05:34.865Z,99.99
2018-11-03T00:06:34.849Z,99.99
2018-11-03T00:07:34.829Z,99.99
2018-11-03T00:08:34.814Z,99.99
2018-11-03T00:09:34.784Z,99.99
2018-11-03T00:10:34.767Z,99.99
2018-11-03T00:11:34.739Z,99.99
2018-11-03T00:12:34.716Z,99.99
2018-11-03T00:13:34.703Z,99.99
2018-11-03T00:14:34.676Z,99.99
2018-11-03T00:15:34.653Z,99.99
2018-11-03T00:16:34.644Z,99.99
2018-11-03T00:17:34.614Z,99.99
2018-11-03T00:18:34.586Z,99.99
2018-11-03T00:19:34.573Z,99.99
2018-11-03T00:20:34.552Z,99.99
2018-11-03T00:21:34.531Z,99.99
2018-11-03T00:22:34.509Z,99.99
2018-11-03T00:23:34.482Z,99.99
2018-11-03T00:24:34.481Z,99.99
2018-11-03T00:25:34.457Z,99.99
2018-11-03T00:26:34.429Z,99.99
2018-11-03T00:27:34.420Z,99.99
2018-11-03T00:28:34.381Z,99.99
2018-11-03T00:29:34.375Z,99.99
2018-11-03T00:30:34.340Z,99.99
2018-11-03T00:31:34.331Z,99.99
2018-11-03T00:32:34.307Z,99.99
2018-11-03T00:33:34.282Z,99.99
2018-11-03T00:34:34.259Z,99.99
2018-11-03T00:35:34.263Z,99.99
2018-11-03T00:36:34.225Z,99.99
2018-11-03T00:37:34.202Z,99.99
2018-11-03T00:38:34.177Z,99.99
2018-11-03T00:39:34.166Z,99.99
2018-11-03T00:40:34.461Z,99.99
2018-11-03T00:41:34.116Z,99.99
2018-11-03T00:42:34.108Z,99.99
2018-11-03T00:43:34.067Z,99.99
2018-11-03T00:44:34.076Z,99.99
2018-11-03T00:45:34.045Z,99.99
2018-11-03T00:46:34.024Z,99.99
2018-11-03T00:47:34.007Z,99.99
2018-11-03T00:48:34.020Z,99.99
2018-11-03T00:49:33.951Z,99.99
2018-11-03T00:50:33.913Z,99.99
2018-11-03T00:51:33.897Z,99.99
2018-11-03T00:52:33.873Z,99.99
2018-11-03T00:53:33.872Z,99.99
2018-11-03T00:54:33.860Z,99.99
2018-11-03T00:55:33.847Z,99.99
2018-11-03T00:56:33.806Z,99.99
2018-11-03T00:57:33.779Z,99.99
2018-11-03T00:58:33.762Z,99.99
2018-11-03T00:59:33.743Z,99.99
2018-11-03T01:00:33.713Z,99.99
2018-11-03T01:01:33.718Z,99.99
2018-11-03T01:02:33.691Z,99.99
2018-11-03T01:03:33.653Z,99.99
2018-11-03T01:04:33.642Z,99.99
2018-11-03T01:05:33.623Z,99.99
2018-11-03T01:06:33.588Z,99.99
2018-11-03T01:08:06.794Z,99.99
2018-11-03T01:08:33.545Z,99.99
2018-11-03T01:09:33.544Z,99.99
2018-11-03T01:10:33.500Z,99.99
2018-11-03T01:11:33.483Z,99.99
2018-11-03T01:12:33.460Z,99.99
2018-11-03T01:13:33.445Z,99.99
2018-11-03T01:14:33.419Z,99.99
2018-11-03T01:15:33.393Z,99.99
2018-11-03T01:16:33.381Z,99.99
2018-11-03T01:17:33.363Z,99.99
2018-11-03T01:18:33.428Z,99.99
2018-11-03T01:19:33.325Z,99.99
2018-11-03T01:20:33.292Z,99.99
2018-11-03T01:21:33.289Z,99.99
2018-11-03T01:22:33.248Z,99.99
2018-11-03T01:23:33.308Z,99.99
2018-11-03T01:24:33.220Z,99.99
2018-11-03T01:25:33.189Z,99.99
2018-11-03T01:26:33.170Z,99.99
2018-11-03T01:27:33.159Z,99.99
2018-11-03T01:28:33.127Z,99.99
2018-11-03T01:29:33.112Z,99.99
2018-11-03T01:30:33.080Z,99.99
2018-11-03T01:31:33.071Z,99.99
2018-11-03T01:32:33.133Z,99.99
2018-11-03T01:33:33.035Z,99.99
2018-11-03T01:34:33.017Z,99.99
2018-11-03T01:35:32.992Z,99.99
2018-11-03T01:36:32.972Z,99.99
2018-11-03T01:37:32.934Z,99.99
2018-11-03T01:38:32.927Z,99.99
2018-11-03T01:39:32.901Z,99.99
2018-11-03T01:40:32.880Z,99.99
2018-11-03T01:41:32.860Z,99.99
2018-11-03T01:42:32.833Z,99.99
2018-11-03T01:43:32.808Z,99.99
2018-11-03T01:44:32.796Z,99.99
2018-11-03T01:45:32.775Z,99.99
2018-11-03T01:46:32.749Z,99.99
2018-11-03T01:47:32.730Z,99.99
2018-11-03T01:48:32.720Z,99.99
2018-11-03T01:49:32.696Z,99.99
2018-11-03T01:50:32.674Z,99.99
2018-11-03T01:51:32.651Z,99.99
2018-11-03T01:52:32.632Z,99.99
2018-11-03T01:53:32.630Z,99.99
2018-11-03T01:54:32.578Z,99.99
2018-11-03T01:55:32.566Z,99.99
2018-11-03T01:56:32.554Z,99.99
2018-11-03T01:57:32.530Z,99.99
2018-11-03T01:58:32.507Z,99.99
2018-11-03T01:59:32.478Z,99.99
2018-11-03T02:00:32.466Z,99.99
2018-11-03T02:01:32.462Z,99.99
2018-11-03T02:02:32.417Z,99.99
2018-11-03T02:03:32.405Z,99.99
2018-11-03T02:04:32.427Z,99.99
2018-11-03T02:05:32.391Z,99.99
2018-11-03T02:06:32.412Z,99.99
2018-11-03T02:07:32.364Z,99.99
2018-11-03T02:08:32.307Z,99.99
2018-11-03T02:09:32.285Z,99.99
2018-11-03T02:10:32.252Z,99.99
2018-11-03T02:11:32.232Z,99.99
2018-11-03T02:12:32.234Z,99.99
2018-11-03T02:13:32.200Z,99.99
2018-11-03T02:14:32.171Z,99.99
2018-11-03T02:15:32.163Z,99.99
2018-11-03T02:16:32.135Z,99.99
2018-11-03T02:17:32.116Z,99.99
2018-11-03T02:18:32.090Z,99.99
2018-11-03T02:19:32.066Z,99.99
2018-11-03T02:20:32.104Z,99.99
2018-11-03T02:21:32.024Z,99.99
2018-11-03T02:22:32.008Z,99.99
2018-11-03T02:23:31.982Z,99.99
2018-11-03T02:24:31.984Z,99.99
2018-11-03T02:25:31.947Z,99.99
2018-11-03T02:26:31.964Z,99.99
2018-11-03T02:27:31.901Z,99.99
2018-11-03T02:28:31.882Z,99.99
2018-11-03T02:29:31.864Z,99.99
2018-11-03T02:30:31.825Z,99.99
2018-11-03T02:31:31.811Z,99.99
2018-11-03T02:32:31.787Z,99.99
2018-11-03T02:33:31.767Z,99.99
2018-11-03T02:34:31.767Z,99.99
2018-11-03T02:35:31.751Z,99.99
2018-11-03T02:36:31.707Z,99.99
2018-11-03T02:37:31.696Z,99.99
2018-11-03T02:38:31.685Z,99.99
2018-11-03T02:39:31.658Z,99.99
2018-11-03T02:40:31.643Z,99.99
2018-11-03T02:41:31.620Z,99.99
2018-11-03T02:42:31.602Z,99.99
2018-11-03T02:44:04.785Z,99.99
2018-11-03T02:44:31.569Z,99.99
2018-11-03T02:45:31.562Z,99.99
2018-11-03T02:46:31.495Z,99.99
2018-11-03T02:47:31.488Z,99.99
2018-11-03T02:48:31.456Z,99.99
2018-11-03T02:49:31.443Z,99.99
2018-11-03T02:50:31.422Z,99.99
2018-11-03T02:51:31.402Z,99.99
2018-11-03T02:52:31.368Z,99.99
2018-11-03T02:53:31.361Z,99.99
2018-11-03T02:54:31.343Z,99.99
2018-11-03T02:55:31.316Z,99.99
2018-11-03T02:56:31.307Z,99.99
2018-11-03T02:57:31.273Z,99.99
2018-11-03T02:58:31.250Z,99.99
2018-11-03T02:59:31.226Z,99.99
2018-11-03T03:00:31.222Z,99.99
2018-11-03T03:01:31.186Z,99.99
2018-11-03T03:02:31.175Z,99.99
2018-11-03T03:03:31.151Z,99.99
2018-11-03T03:04:31.126Z,99.99
2018-11-03T03:05:31.098Z,99.99
2018-11-03T03:06:31.083Z,99.99
2018-11-03T03:07:31.069Z,99.99
2018-11-03T03:08:31.043Z,99.99
2018-11-03T03:09:31.030Z,99.99
2018-11-03T03:10:31.015Z,99.99
2018-11-03T03:11:31.023Z,99.99
2018-11-03T03:12:30.961Z,99.99
2018-11-03T03:13:30.939Z,99.99
2018-11-03T03:14:30.922Z,99.99
2018-11-03T03:15:30.905Z,99.99
2018-11-03T03:16:30.900Z,99.99
2018-11-03T03:17:30.860Z,99.99
2018-11-03T03:18:30.835Z,99.99
2018-11-03T03:19:30.818Z,99.99
2018-11-03T03:20:30.811Z,99.99
2018-11-03T03:21:30.764Z,99.99
2018-11-03T03:22:30.754Z,99.99
2018-11-03T03:23:30.735Z,99.99
2018-11-03T03:24:30.723Z,99.99
2018-11-03T03:25:30.694Z,99.99
2018-11-03T03:26:30.680Z,99.99
2018-11-03T03:27:30.650Z,99.99
2018-11-03T03:28:30.635Z,99.99
2018-11-03T03:29:30.679Z,99.99
2018-11-03T03:30:30.583Z,99.99
2018-11-03T03:31:30.568Z,99.99
2018-11-03T03:32:30.544Z,99.99
2018-11-03T03:33:30.532Z,99.99
2018-11-03T03:34:30.504Z,99.99
2018-11-03T03:35:30.485Z,99.99
2018-11-03T03:36:30.461Z,99.99
2018-11-03T03:37:30.447Z,99.99
2018-11-03T03:38:30.414Z,99.99
2018-11-03T03:39:30.400Z,99.99
2018-11-03T03:40:30.383Z,99.99
2018-11-03T03:41:30.355Z,99.99
2018-11-03T03:42:30.328Z,99.99
2018-11-03T03:43:30.321Z,99.99
2018-11-03T03:44:30.308Z,99.99
2018-11-03T03:45:30.273Z,99.99
2018-11-03T03:46:30.254Z,99.99
2018-11-03T03:47:30.230Z,99.99
2018-11-03T03:48:30.218Z,99.99
2018-11-03T03:49:30.195Z,99.99
2018-11-03T03:50:30.173Z,99.99
2018-11-03T03:51:30.151Z,99.99
2018-11-03T03:52:30.125Z,99.99
2018-11-03T03:53:30.121Z,99.99
2018-11-03T03:54:30.086Z,99.99
2018-11-03T03:55:30.065Z,99.99
2018-11-03T03:56:30.048Z,99.99
2018-11-03T03:57:30.035Z,99.99
2018-11-03T03:58:30.015Z,99.99
2018-11-03T03:59:29.992Z,99.99
2018-11-03T04:00:29.971Z,99.99
2018-11-03T04:01:29.952Z,99.99
2018-11-03T04:02:29.927Z,99.99
2018-11-03T04:03:29.903Z,99.99
2018-11-03T04:04:29.894Z,99.99
2018-11-03T04:05:29.872Z,99.99
2018-11-03T04:06:29.843Z,99.99
2018-11-03T04:07:29.849Z,99.99
2018-11-03T04:08:29.801Z,99.99
2018-11-03T04:09:29.783Z,99.99
2018-11-03T04:10:29.759Z,99.99
2018-11-03T04:11:29.749Z,99.99
2018-11-03T04:12:29.721Z,99.99
2018-11-03T04:13:29.700Z,99.99
2018-11-03T04:14:29.680Z,99.99
2018-11-03T04:15:29.657Z,99.99
2018-11-03T04:16:29.638Z,99.99
2018-11-03T04:17:29.617Z,99.99
2018-11-03T04:18:29.599Z,99.99
2018-11-03T04:19:29.580Z,99.99
2018-11-03T04:20:29.561Z,99.99
2018-11-03T04:21:29.527Z,99.99
2018-11-03T04:22:29.520Z,99.99
2018-11-03T04:23:29.501Z,99.99
2018-11-03T04:24:29.469Z,99.99
2018-11-03T04:25:29.475Z,99.99
2018-11-03T04:26:29.421Z,99.99
2018-11-03T04:27:29.412Z,99.99
2018-11-03T04:28:29.395Z,99.99
2018-11-03T04:29:29.362Z,99.99
2018-11-03T04:30:29.392Z,99.99
2018-11-03T04:31:29.325Z,99.99
2018-11-03T04:32:29.307Z,99.99
2018-11-03T04:33:29.281Z,99.99
2018-11-03T04:34:29.263Z,99.99
2018-11-03T04:35:29.241Z,99.99
2018-11-03T04:36:29.220Z,99.99
2018-11-03T04:37:29.196Z,99.99
2018-11-03T04:38:29.182Z,99.99
2018-11-03T04:39:29.162Z,99.99
2018-11-03T04:40:29.165Z,99.99
2018-11-03T04:41:29.101Z,99.99
2018-11-03T04:42:29.087Z,99.99
2018-11-03T04:43:29.069Z,99.99
2018-11-03T04:44:29.078Z,99.99
2018-11-03T04:45:29.124Z,99.99
2018-11-03T04:46:29.013Z,99.99
2018-11-03T04:47:28.991Z,99.99
2018-11-03T04:48:28.967Z,99.99
2018-11-03T04:49:28.963Z,99.99
2018-11-03T04:50:28.924Z,99.99
2018-11-03T04:51:28.903Z,99.99
2018-11-03T04:52:28.918Z,99.99
2018-11-03T04:53:28.891Z,99.99
2018-11-03T04:54:28.848Z,99.99
2018-11-03T04:55:28.826Z,99.99
2018-11-03T04:56:28.801Z,99.99
2018-11-03T04:57:28.785Z,99.99
2018-11-03T04:58:28.753Z,99.99
2018-11-03T04:59:28.726Z,99.99
2018-11-03T05:00:28.706Z,99.99
2018-11-03T05:01:28.691Z,99.99
2018-11-03T05:02:28.676Z,99.99
2018-11-03T05:03:28.651Z,99.99
2018-11-03T05:04:28.624Z,99.99
2018-11-03T05:05:28.608Z,99.99
2018-11-03T05:06:28.580Z,99.99
2018-11-03T05:07:28.558Z,99.99
2018-11-03T05:08:28.541Z,99.99
2018-11-03T05:09:28.528Z,99.99
2018-11-03T05:10:28.571Z,99.99
2018-11-03T05:11:28.483Z,99.99
2018-11-03T05:12:28.487Z,99.99
2018-11-03T05:13:28.443Z,99.99
2018-11-03T05:14:28.416Z,99.99
2018-11-03T05:15:28.576Z,99.99
2018-11-03T05:16:28.558Z,99.99
2018-11-03T05:17:28.473Z,99.99
2018-11-03T05:18:28.532Z,99.99
2018-11-03T05:19:28.349Z,99.99
2018-11-03T05:20:28.325Z,99.99
2018-11-03T05:21:28.435Z,99.99
2018-11-03T05:22:28.250Z,99.99
2018-11-03T05:23:28.227Z,99.99
2018-11-03T05:24:28.200Z,99.99
2018-11-03T05:25:28.178Z,99.99
2018-11-03T05:26:28.209Z,99.99
2018-11-03T05:27:28.137Z,99.99
2018-11-03T05:28:28.120Z,99.99
2018-11-03T05:29:28.093Z,99.99
2018-11-03T05:30:28.080Z,99.99
2018-11-03T05:31:28.055Z,99.99
2018-11-03T05:32:28.036Z,99.99
2018-11-03T05:33:28.006Z,99.99
2018-11-03T05:34:27.983Z,99.99
2018-11-03T05:35:27.977Z,99.99
2018-11-03T05:36:27.960Z,99.99
2018-11-03T05:37:27.929Z,99.99
2018-11-03T05:38:27.910Z,99.99
2018-11-03T05:39:27.893Z,99.99
2018-11-03T05:40:27.931Z,99.99
2018-11-03T05:41:27.850Z,99.99
2018-11-03T05:42:27.826Z,99.99
2018-11-03T05:43:27.801Z,99.99
2018-11-03T05:44:27.773Z,99.99
2018-11-03T05:45:27.755Z,99.99
2018-11-03T05:46:27.851Z,99.99
2018-11-03T05:47:27.724Z,99.99
2018-11-03T05:48:27.702Z,99.99
2018-11-03T05:49:27.671Z,99.99
2018-11-03T05:50:27.689Z,99.99
2018-11-03T05:51:27.673Z,99.99
2018-11-03T05:52:27.611Z,99.99
2018-11-03T05:53:27.627Z,99.99
2018-11-03T05:54:27.569Z,99.99
2018-11-03T05:55:27.546Z,99.99
2018-11-03T05:56:27.546Z,99.99
2018-11-03T05:57:27.494Z,99.99
2018-11-03T05:58:27.478Z,99.99
2018-11-03T05:59:27.457Z,99.99
2018-11-03T06:00:27.435Z,99.99
2018-11-03T06:01:27.418Z,99.99
2018-11-03T06:02:27.400Z,99.99
2018-11-03T06:03:27.377Z,99.99
2018-11-03T06:04:27.353Z,99.99
2018-11-03T06:05:27.333Z,99.99
2018-11-03T06:06:27.317Z,99.99
2018-11-03T06:07:27.284Z,99.99
2018-11-03T06:08:27.269Z,99.99
2018-11-03T06:09:27.243Z,99.99
2018-11-03T06:10:27.220Z,99.99
2018-11-03T06:11:27.210Z,99.99
2018-11-03T06:12:27.237Z,99.99
2018-11-03T06:13:27.160Z,99.99
2018-11-03T06:14:27.145Z,99.99
2018-11-03T06:15:27.253Z,99.99
2018-11-03T06:16:27.108Z,99.99
2018-11-03T06:17:27.084Z,99.99
2018-11-03T06:18:27.062Z,99.99
2018-11-03T06:19:27.034Z,99.99
2018-11-03T06:20:27.004Z,99.99
2018-11-03T06:21:26.993Z,99.99
2018-11-03T06:22:27.003Z,99.99
2018-11-03T06:23:26.966Z,99.99
2018-11-03T06:24:26.926Z,99.99
2018-11-03T06:25:26.907Z,99.99
2018-11-03T06:26:26.884Z,99.99
2018-11-03T06:27:26.857Z,99.99
2018-11-03T06:28:26.848Z,99.99
2018-11-03T06:29:26.823Z,99.99
2018-11-03T06:30:26.795Z,99.99
2018-11-03T06:31:26.774Z,99.99
2018-11-03T06:32:26.773Z,99.99
2018-11-03T06:33:26.741Z,99.99
2018-11-03T06:34:26.713Z,99.99
2018-11-03T06:35:26.776Z,99.99
2018-11-03T06:36:26.668Z,99.99
2018-11-03T06:37:26.647Z,99.99
2018-11-03T06:38:26.640Z,99.99
2018-11-03T06:39:26.613Z,99.99
2018-11-03T06:40:26.593Z,99.99
2018-11-03T06:41:26.570Z,99.99
2018-11-03T06:42:26.559Z,99.99
2018-11-03T06:43:26.547Z,99.99
2018-11-03T06:44:26.502Z,99.99
2018-11-03T06:45:26.489Z,99.99
2018-11-03T06:46:26.508Z,99.99
2018-11-03T06:47:26.522Z,99.99
2018-11-03T06:48:26.424Z,99.99
2018-11-03T06:49:26.392Z,99.99
2018-11-03T06:50:26.368Z,99.99
2018-11-03T06:51:26.345Z,99.99
2018-11-03T06:52:26.335Z,99.99
2018-11-03T06:53:26.306Z,99.99
2018-11-03T06:54:26.285Z,99.99
2018-11-03T06:55:26.286Z,99.99
2018-11-03T06:56:26.248Z,99.99
2018-11-03T06:57:26.222Z,99.99
2018-11-03T06:58:26.202Z,99.99
2018-11-03T06:59:26.181Z,99.99
2018-11-03T07:00:26.174Z,99.99
2018-11-03T07:01:26.146Z,99.99
2018-11-03T07:02:26.113Z,99.99
2018-11-03T07:03:26.099Z,99.99
2018-11-03T07:04:26.063Z,99.99
2018-11-03T07:05:26.049Z,99.99
2018-11-03T07:06:26.026Z,99.99
2018-11-03T07:07:26.004Z,99.99
2018-11-03T07:08:26.018Z,99.99
2018-11-03T07:09:25.972Z,99.99
2018-11-03T07:10:26.014Z,99.99
2018-11-03T07:11:25.975Z,99.99
2018-11-03T07:12:26.179Z,99.99
2018-11-03T07:13:26.030Z,99.99
2018-11-03T07:14:25.863Z,99.99
2018-11-03T07:15:25.826Z,99.99
2018-11-03T07:16:25.808Z,99.99
2018-11-03T07:17:25.946Z,99.99
2018-11-03T07:18:25.791Z,99.99
2018-11-03T07:19:25.746Z,99.99
2018-11-03T07:20:25.732Z,99.99
2018-11-03T07:21:25.748Z,99.99
2018-11-03T07:22:25.687Z,99.99
2018-11-03T07:23:25.691Z,99.99
2018-11-03T07:24:25.647Z,99.99
2018-11-03T07:25:25.620Z,99.99
2018-11-03T07:26:25.596Z,99.99
2018-11-03T07:27:25.575Z,99.99
2018-11-03T07:28:25.552Z,99.99
2018-11-03T07:29:25.566Z,99.99
2018-11-03T07:30:25.514Z,99.99
2018-11-03T07:31:25.499Z,99.99
2018-11-03T07:32:25.483Z,99.99
2018-11-03T07:33:25.447Z,99.99
2018-11-03T07:34:25.422Z,99.99
2018-11-03T07:35:25.409Z,99.99
2018-11-03T07:36:25.375Z,99.99
2018-11-03T07:37:25.433Z,99.99
2018-11-03T07:38:25.340Z,99.99
2018-11-03T07:39:25.343Z,99.99
2018-11-03T07:40:25.296Z,99.99
2018-11-03T07:41:25.381Z,99.99
2018-11-03T07:42:25.292Z,99.99
2018-11-03T07:43:25.236Z,99.99
2018-11-03T07:44:25.215Z,99.99
2018-11-03T07:45:25.196Z,99.99
2018-11-03T07:46:25.181Z,99.99
2018-11-03T07:47:25.153Z,99.99
2018-11-03T07:48:25.185Z,99.99
2018-11-03T07:49:25.209Z,99.99
2018-11-03T07:50:25.089Z,99.99
2018-11-03T07:51:25.068Z,99.99
2018-11-03T07:52:25.045Z,99.99
2018-11-03T07:53:25.027Z,99.99
2018-11-03T07:54:25.083Z,99.99
2018-11-03T07:55:24.970Z,99.99
2018-11-03T07:56:24.959Z,99.99
2018-11-03T07:57:24.960Z,99.99
2018-11-03T07:58:24.923Z,99.99
2018-11-03T07:59:24.896Z,99.99
2018-11-03T08:00:24.911Z,99.99
2018-11-03T08:01:24.857Z,99.99
2018-11-03T08:02:24.826Z,99.99
2018-11-03T08:03:24.812Z,99.99
2018-11-03T08:04:24.787Z,99.99
2018-11-03T08:05:24.773Z,99.99
2018-11-03T08:06:24.760Z,99.99
2018-11-03T08:07:24.721Z,99.99
2018-11-03T08:08:24.705Z,99.99
2018-11-03T08:09:24.677Z,99.99
2018-11-03T08:10:24.663Z,99.99
2018-11-03T08:11:24.643Z,99.99
2018-11-03T08:12:24.626Z,99.99
2018-11-03T08:13:24.602Z,99.99
2018-11-03T08:14:24.572Z,99.99
2018-11-03T08:15:24.611Z,99.99
2018-11-03T08:16:24.543Z,99.99
2018-11-03T08:17:24.516Z,99.99
2018-11-03T08:18:24.501Z,99.99
2018-11-03T08:19:24.468Z,99.99
2018-11-03T08:20:24.444Z,99.99
2018-11-03T08:21:24.429Z,99.99
2018-11-03T08:22:24.404Z,99.99
2018-11-03T08:23:24.375Z,99.99
2018-11-03T08:24:24.393Z,99.99
2018-11-03T08:25:24.343Z,99.99
2018-11-03T08:26:24.324Z,99.99
2018-11-03T08:27:24.296Z,99.99
2018-11-03T08:28:24.285Z,99.99
2018-11-03T08:29:24.258Z,99.99
2018-11-03T08:30:24.242Z,99.99
2018-11-03T08:31:24.257Z,99.99
2018-11-03T08:32:24.189Z,99.99
2018-11-03T08:33:24.169Z,99.99
2018-11-03T08:34:24.148Z,99.99
2018-11-03T08:35:24.131Z,99.99
2018-11-03T08:36:24.100Z,99.99
2018-11-03T08:37:24.088Z,99.99
2018-11-03T08:38:24.063Z,99.99
2018-11-03T08:39:24.049Z,99.99
2018-11-03T08:40:24.029Z,99.99
2018-11-03T08:41:24.017Z,99.99
2018-11-03T08:42:23.974Z,99.99
2018-11-03T08:43:23.947Z,99.99
2018-11-03T08:44:23.940Z,99.99
2018-11-03T08:45:23.908Z,99.99
2018-11-03T08:46:23.891Z,99.99
2018-11-03T08:47:23.873Z,99.99
2018-11-03T08:48:23.930Z,99.99
2018-11-03T08:49:23.824Z,99.99
2018-11-03T08:50:23.814Z,99.99
2018-11-03T08:51:23.784Z,99.99
2018-11-03T08:52:23.762Z,99.99
2018-11-03T08:53:23.749Z,99.99
2018-11-03T08:54:23.726Z,99.99
2018-11-03T08:55:23.707Z,99.99
2018-11-03T08:56:23.706Z,99.99
2018-11-03T08:57:23.652Z,99.99
2018-11-03T08:58:23.627Z,99.99
2018-11-03T08:59:23.631Z,99.99
2018-11-03T09:00:23.813Z,99.99
2018-11-03T09:01:23.562Z,99.99
2018-11-03T09:02:23.552Z,99.99
2018-11-03T09:03:23.543Z,99.99
2018-11-03T09:04:23.515Z,99.99
2018-11-03T09:05:23.521Z,99.99
2018-11-03T09:06:23.463Z,99.99
2018-11-03T09:07:23.443Z,99.99
2018-11-03T09:08:23.426Z,99.99
2018-11-03T09:09:23.405Z,99.99
2018-11-03T09:10:23.380Z,99.99
2018-11-03T09:11:23.367Z,99.99
2018-11-03T09:12:23.341Z,99.99
2018-11-03T09:13:23.328Z,99.99
2018-11-03T09:14:23.330Z,99.99
2018-11-03T09:15:23.322Z,99.99
2018-11-03T09:16:23.261Z,99.99
2018-11-03T09:17:23.240Z,99.99
2018-11-03T09:18:23.233Z,99.99
2018-11-03T09:19:23.199Z,99.99
2018-11-03T09:20:23.187Z,99.99
2018-11-03T09:21:23.148Z,99.99
2018-11-03T09:22:23.188Z,99.99
2018-11-03T09:23:23.109Z,99.99
2018-11-03T09:24:23.094Z,99.99
2018-11-03T09:25:23.068Z,99.99
2018-11-03T09:26:23.056Z,99.99
2018-11-03T09:27:23.029Z,99.99
2018-11-03T09:28:23.017Z,99.99
2018-11-03T09:29:23.006Z,99.99
2018-11-03T09:30:22.984Z,99.99
2018-11-03T09:31:22.944Z,99.99
2018-11-03T09:32:22.933Z,99.99
2018-11-03T09:33:22.913Z,99.99
2018-11-03T09:34:22.913Z,99.99
2018-11-03T09:35:22.867Z,99.99
2018-11-03T09:36:22.853Z,99.99
2018-11-03T09:37:22.890Z,99.99
2018-11-03T09:38:22.861Z,99.99
2018-11-03T09:39:22.942Z,99.99
2018-11-03T09:40:22.769Z,99.99
2018-11-03T09:41:22.749Z,99.99
2018-11-03T09:42:22.735Z,99.99
2018-11-03T09:43:22.850Z,99.99
2018-11-03T09:44:22.683Z,99.99
2018-11-03T09:45:22.674Z,99.99
2018-11-03T09:46:22.649Z,99.99
2018-11-03T09:47:22.637Z,99.99
2018-11-03T09:48:22.610Z,99.99
2018-11-03T09:49:22.580Z,99.99
2018-11-03T09:50:22.654Z,99.99
2018-11-03T09:51:22.560Z,99.99
2018-11-03T09:52:22.529Z,99.99
2018-11-03T09:53:22.516Z,99.99
2018-11-03T09:54:22.488Z,99.99
2018-11-03T09:55:22.479Z,99.99
2018-11-03T09:56:22.477Z,99.99
2018-11-03T09:57:22.430Z,99.99
2018-11-03T09:58:22.412Z,99.99
2018-11-03T09:59:22.403Z,99.99
2018-11-03T10:00:22.381Z,99.99
2018-11-03T10:01:22.387Z,99.99
2018-11-03T10:02:22.333Z,99.99
2018-11-03T10:03:22.316Z,99.99
2018-11-03T10:04:22.291Z,99.99
2018-11-03T10:05:22.281Z,99.99
2018-11-03T10:06:22.311Z,99.99
2018-11-03T10:07:22.244Z,99.99
2018-11-03T10:08:22.218Z,99.99
2018-11-03T10:09:22.204Z,99.99
2018-11-03T10:10:22.189Z,99.99
2018-11-03T10:11:22.175Z,99.99
2018-11-03T10:12:22.154Z,99.99
2018-11-03T10:13:22.135Z,99.99
2018-11-03T10:14:22.106Z,99.99
2018-11-03T10:15:22.090Z,99.99
2018-11-03T10:16:22.080Z,99.99
2018-11-03T10:17:22.050Z,99.99
2018-11-03T10:18:22.039Z,99.99
2018-11-03T10:19:22.026Z,99.99
2018-11-03T10:20:21.996Z,99.99
2018-11-03T10:21:21.978Z,99.99
2018-11-03T10:22:21.999Z,99.99
2018-11-03T10:23:21.950Z,99.99
2018-11-03T10:24:21.941Z,99.99
2018-11-03T10:25:21.909Z,99.99
2018-11-03T10:26:21.886Z,99.99
2018-11-03T10:27:21.884Z,99.99
2018-11-03T10:28:21.863Z,99.99
2018-11-03T10:29:21.843Z,99.99
2018-11-03T10:30:21.826Z,99.99
2018-11-03T10:31:21.813Z,99.99
2018-11-03T10:32:21.800Z,99.99
2018-11-03T10:33:21.787Z,99.99
2018-11-03T10:34:21.763Z,99.99
2018-11-03T10:35:21.747Z,99.99
2018-11-03T10:36:21.730Z,99.99
2018-11-03T10:37:21.716Z,99.99
2018-11-03T10:38:21.700Z,99.99
2018-11-03T10:39:21.691Z,99.99
2018-11-03T10:40:21.670Z,99.80
2018-11-03T10:41:21.653Z,99.07
2018-11-03T10:42:21.640Z,99.02
2018-11-03T10:43:21.629Z,99.99
2018-11-03T10:44:21.608Z,99.99
2018-11-03T10:45:21.595Z,99.99
2018-11-03T10:46:21.676Z,99.70
2018-11-03T10:47:21.568Z,98.54
2018-11-03T10:48:21.554Z,97.42
2018-11-03T10:49:21.537Z,95.81
2018-11-03T10:50:21.533Z,96.31
2018-11-03T10:51:21.516Z,98.05
2018-11-03T10:52:21.500Z,99.99
2018-11-03T10:53:21.520Z,99.99
2018-11-03T10:54:21.467Z,99.99
2018-11-03T10:55:21.454Z,99.99
2018-11-03T10:56:21.443Z,99.99
2018-11-03T10:57:21.423Z,99.99
2018-11-03T10:58:21.394Z,99.99
2018-11-03T10:59:21.396Z,99.99
2018-11-03T11:00:21.383Z,99.99
2018-11-03T11:01:21.363Z,99.41
2018-11-03T11:02:21.335Z,99.99
2018-11-03T11:03:21.343Z,99.99
2018-11-03T11:04:21.321Z,99.99
2018-11-03T11:05:21.288Z,99.99
2018-11-03T11:06:21.295Z,99.55
2018-11-03T11:07:21.267Z,98.97
2018-11-03T11:08:21.260Z,99.90
2018-11-03T11:09:21.246Z,99.46
2018-11-03T11:10:21.233Z,99.99
2018-11-03T11:11:21.222Z,99.99
2018-11-03T11:12:21.202Z,99.65
2018-11-03T11:13:21.190Z,99.99
2018-11-03T11:14:21.240Z,99.99
2018-11-03T11:15:21.160Z,99.99
2018-11-03T11:16:21.206Z,99.75
2018-11-03T11:17:21.131Z,99.37
2018-11-03T11:18:21.119Z,98.93
2018-11-03T11:19:21.104Z,99.70
2018-11-03T11:20:21.096Z,99.80
2018-11-03T11:21:21.081Z,99.99
2018-11-03T11:22:21.059Z,99.99
2018-11-03T11:23:21.158Z,99.99
2018-11-03T11:24:21.272Z,99.99
2018-11-03T11:25:21.240Z,99.55
2018-11-03T11:26:21.005Z,98.88
2018-11-03T11:27:20.977Z,98.54
2018-11-03T11:28:21.052Z,98.35
2018-11-03T11:29:20.961Z,97.28
2018-11-03T11:30:20.949Z,98.54
2018-11-03T11:31:20.989Z,97.66
2018-11-03T11:32:20.910Z,97.86
2018-11-03T11:33:20.912Z,97.71
2018-11-03T11:34:20.889Z,98.49
2018-11-03T11:35:20.877Z,98.30
2018-11-03T11:36:20.868Z,98.25
2018-11-03T11:37:20.873Z,98.44
2018-11-03T11:38:20.834Z,99.27
2018-11-03T11:39:20.822Z,98.10
2018-11-03T11:40:20.804Z,97.91
2018-11-03T11:41:20.798Z,98.10
2018-11-03T11:42:20.794Z,98.49
2018-11-03T11:43:20.911Z,98.44
2018-11-03T11:44:20.743Z,98.20
2018-11-03T11:45:20.825Z,97.91
2018-11-03T11:46:20.730Z,98.30
2018-11-03T11:47:20.703Z,98.20
2018-11-03T11:48:20.690Z,97.56
2018-11-03T11:49:20.690Z,98.44
2018-11-03T11:50:20.652Z,98.88
2018-11-03T11:51:20.651Z,98.20
2018-11-03T11:52:20.633Z,96.98
2018-11-03T11:53:20.607Z,97.96
2018-11-03T11:54:20.608Z,96.89
2018-11-03T11:55:20.594Z,97.08
2018-11-03T11:56:20.581Z,96.31
2018-11-03T11:57:20.570Z,97.18
2018-11-03T11:58:20.549Z,96.35
2018-11-03T11:59:20.537Z,95.97
2018-11-03T12:00:20.508Z,96.74
2018-11-03T12:01:20.505Z,96.06
2018-11-03T12:02:20.504Z,95.67
2018-11-03T12:03:20.467Z,96.15
2018-11-03T12:04:20.462Z,95.67
2018-11-03T12:05:20.451Z,95.72
2018-11-03T12:06:20.442Z,95.62
2018-11-03T12:07:20.425Z,95.57
2018-11-03T12:08:53.609Z,96.35
2018-11-03T12:09:20.383Z,95.48
2018-11-03T12:10:20.390Z,95.43
2018-11-03T12:11:20.380Z,95.38
2018-11-03T12:12:20.345Z,95.53
2018-11-03T12:13:20.343Z,95.47
2018-11-03T12:14:20.326Z,94.40
2018-11-03T12:15:20.320Z,94.50
2018-11-03T12:16:20.469Z,94.55
2018-11-03T12:17:20.281Z,93.97
2018-11-03T12:18:20.279Z,94.79
2018-11-03T12:19:20.265Z,94.50
2018-11-03T12:20:20.256Z,94.11
2018-11-03T12:21:20.244Z,93.09
2018-11-03T12:22:20.227Z,92.60
2018-11-03T12:23:20.210Z,92.70
2018-11-03T12:24:20.201Z,92.11
2018-11-03T12:25:20.213Z,92.80
2018-11-03T12:28:03.936Z,92.41
2018-11-03T12:29:03.930Z,92.56
2018-11-03T12:30:03.898Z,93.04
2018-11-03T12:31:03.901Z,92.75
2018-11-03T12:32:03.886Z,92.94
2018-11-03T12:33:03.873Z,92.75
2018-11-03T12:34:03.866Z,93.33
2018-11-03T12:35:03.853Z,93.04
2018-11-03T12:36:03.851Z,94.11
2018-11-03T12:37:03.827Z,93.82
2018-11-03T12:38:03.829Z,93.92
2018-11-03T12:39:03.814Z,93.43
2018-11-03T12:40:03.827Z,93.53
2018-11-03T12:41:03.795Z,94.02
2018-11-03T12:42:03.780Z,93.96
2018-11-03T12:43:03.760Z,92.60
2018-11-03T12:44:03.739Z,92.70
2018-11-03T12:45:03.739Z,92.90
2018-11-03T12:46:03.726Z,92.65
2018-11-03T12:47:03.713Z,91.87
2018-11-03T12:48:03.776Z,91.97
2018-11-03T12:49:03.693Z,92.41
2018-11-03T12:50:03.665Z,92.21
2018-11-03T12:51:03.658Z,92.41
2018-11-03T12:52:03.573Z,93.67
2018-11-03T12:53:03.575Z,92.41
2018-11-03T12:54:03.556Z,92.65